Time;durP1;ratioP1;P1;durP2;ratioP2;P2;SDS_P1;SDS_P2;PMS_P1;PMS_P2;Temp;Humidity;BMP_temperature;BMP_pressure;BME280_temperature;BME280_humidity;BME280_pressure;Samples;Min_cycle;Max_cycle;Signal;HPM_P1;HPM_P2
2023/05/13 00:01:29;;;;;;;10.88;8.48;;;;;;;13.69;97.74;101390.72;4962990;28;20125;-64
2023/05/13 00:03:55;;;;;;;11.40;8.30;;;;;;;13.67;97.77;101392.47;4965262;28;20038;-64
2023/05/13 00:06:20;;;;;;;9.07;7.28;;;;;;;13.63;97.99;101385.56;4958059;28;20035;-63
2023/05/13 00:08:46;;;;;;;10.73;8.60;;;;;;;13.60;98.43;101390.81;4962097;28;20045;-64
2023/05/13 00:11:11;;;;;;;13.27;8.27;;;;;;;13.56;98.89;101381.34;4959639;28;20035;-63
2023/05/13 00:13:37;;;;;;;9.43;7.97;;;;;;;13.51;98.58;101385.72;4965415;28;20043;-64
2023/05/13 00:16:02;;;;;;;11.00;8.88;;;;;;;13.47;98.91;101384.03;4961032;28;20501;-64
2023/05/13 00:18:28;;;;;;;13.93;9.43;;;;;;;13.46;99.25;101390.09;4959827;28;20045;-64
2023/05/13 00:20:55;;;;;;;12.10;8.32;;;;;;;13.44;99.64;101395.28;4992369;28;20130;-64
2023/05/13 00:23:20;;;;;;;11.95;8.70;;;;;;;13.43;99.69;101390.13;4961663;28;20089;-64
2023/05/13 00:25:45;;;;;;;9.80;7.57;;;;;;;13.41;99.53;101391.88;4958671;28;20414;-63
2023/05/13 00:28:13;;;;;;;12.00;7.55;;;;;;;13.40;99.32;101388.44;4960747;28;20253;-65
2023/05/13 00:30:41;;;;;;;9.15;7.72;;;;;;;13.38;99.45;101381.53;4959477;28;20058;-64
2023/05/13 00:33:06;;;;;;;9.65;7.65;;;;;;;13.37;99.48;101380.66;4959113;28;20508;-64
2023/05/13 00:35:32;;;;;;;8.85;7.57;;;;;;;13.37;99.05;101375.47;4959656;28;20120;-64
2023/05/13 00:37:58;;;;;;;10.25;8.10;;;;;;;13.38;99.21;101379.81;4954942;28;20906;-64
2023/05/13 00:40:23;;;;;;;8.02;6.38;;;;;;;13.39;99.22;101371.13;4963646;28;20047;-64
2023/05/13 00:42:50;;;;;;;8.93;7.20;;;;;;;13.39;99.07;101380.63;4958894;28;20043;-63
2023/05/13 00:45:16;;;;;;;11.13;8.50;;;;;;;13.37;98.67;101379.81;4958687;28;20027;-63
2023/05/13 00:47:42;;;;;;;10.73;8.73;;;;;;;13.38;98.69;101387.59;4963677;28;20617;-63
2023/05/13 00:50:09;;;;;;;12.48;7.57;;;;;;;13.39;98.64;101391.88;4958826;28;20038;-63
2023/05/13 00:52:36;;;;;;;10.75;7.85;;;;;;;13.42;98.58;101393.59;4957895;28;20524;-64
2023/05/13 00:55:03;;;;;;;12.70;8.07;;;;;;;13.44;98.43;101397.06;4961267;28;20042;-63
2023/05/13 00:57:29;;;;;;;10.30;8.20;;;;;;;13.42;98.65;101388.41;4957856;28;20042;-64
2023/05/13 00:59:54;;;;;;;10.18;7.90;;;;;;;13.41;98.33;101386.69;4960330;28;20101;-63
2023/05/13 01:02:24;;;;;;;13.77;7.75;;;;;;;13.40;98.10;101393.63;4957658;28;20136;-64
2023/05/13 01:04:57;;;;;;;10.70;7.57;;;;;;;13.38;98.02;101390.19;4956609;28;20054;-64
2023/05/13 01:07:54;;;;;;;7.80;7.00;;;;;;;13.33;97.97;101386.75;4958252;28;20042;-64
2023/05/13 01:10:42;;;;;;;10.10;6.85;;;;;;;13.27;98.49;101381.63;4962641;28;20042;-63
2023/05/13 01:13:15;;;;;;;6.53;5.82;;;;;;;13.24;98.36;101388.56;4954891;28;20045;-64
2023/05/13 01:15:55;;;;;;;9.40;7.20;;;;;;;13.16;98.00;101391.25;4967990;28;20108;-64
2023/05/13 01:18:30;;;;;;;10.77;7.43;;;;;;;13.11;98.41;101393.03;4960511;28;20035;-64
2023/05/13 01:20:57;;;;;;;;;;;;;;;13.04;98.42;101390.50;4957486;28;20027;-63
2023/05/13 01:23:22;;;;;;;8.07;6.57;;;;;;;12.99;98.57;101387.91;4959943;28;19926;-64
2023/05/13 01:25:49;;;;;;;8.63;7.18;;;;;;;12.94;98.71;101387.94;4957636;28;20049;-63
2023/05/13 01:28:14;;;;;;;8.35;6.43;;;;;;;12.90;98.58;101391.44;4962175;28;20054;-64
2023/05/13 01:30:41;;;;;;;8.70;6.97;;;;;;;12.87;98.79;101390.59;4955546;28;20058;-64
2023/05/13 01:33:07;;;;;;;8.55;6.85;;;;;;;12.83;98.92;101383.72;4963213;28;20026;-64
2023/05/13 01:35:32;;;;;;;9.95;7.65;;;;;;;12.79;98.99;101393.25;4990859;28;20031;-64
2023/05/13 01:37:59;;;;;;;8.82;7.70;;;;;;;12.79;99.07;101395.00;4958174;28;20126;-63
2023/05/13 01:40:25;;;;;;;9.27;7.45;;;;;;;12.75;98.94;101390.69;4960691;28;20101;-64
2023/05/13 01:42:50;;;;;;;8.68;7.57;;;;;;;12.72;99.17;101394.19;4955995;28;20046;-63
2023/05/13 01:45:16;;;;;;;8.98;7.55;;;;;;;12.68;99.19;101397.66;4958573;28;20043;-64
2023/05/13 01:47:41;;;;;;;11.10;7.68;;;;;;;12.66;99.41;101403.72;4960149;28;20051;-64
2023/05/13 01:50:07;;;;;;;9.60;7.85;;;;;;;12.61;99.31;101406.38;4959786;28;20093;-64
2023/05/13 01:52:33;;;;;;;10.90;7.32;;;;;;;12.60;99.57;101408.94;4958104;28;20981;-64
2023/05/13 01:54:58;;;;;;;8.75;7.57;;;;;;;12.58;99.57;101395.16;4958069;28;20039;-63
2023/05/13 01:57:24;;;;;;;10.70;7.93;;;;;;;12.56;99.79;101397.72;4957228;28;20038;-64
2023/05/13 01:59:49;;;;;;;8.88;7.35;;;;;;;12.56;99.14;101404.66;4957991;28;20716;-63
2023/05/13 02:02:15;;;;;;;10.38;7.85;;;;;;;12.55;99.57;101398.63;4960955;28;20105;-63
2023/05/13 02:04:40;;;;;;;10.07;7.05;;;;;;;12.56;99.53;101396.88;4963858;28;20035;-64
2023/05/13 02:07:05;;;;;;;10.18;7.70;;;;;;;12.58;99.59;101398.59;4970853;28;20038;-63
2023/05/13 02:09:31;;;;;;;9.68;7.47;;;;;;;12.59;99.43;101399.44;4981669;28;20034;-64
2023/05/13 02:11:57;;;;;;;12.48;7.25;;;;;;;12.59;99.69;101400.31;4953156;28;20500;-64
2023/05/13 02:14:22;;;;;;;10.07;7.03;;;;;;;12.59;99.31;101399.44;4958659;28;20141;-64
2023/05/13 02:16:47;;;;;;;7.85;6.90;;;;;;;12.59;99.21;101395.13;4962023;28;20089;-63
2023/05/13 02:19:13;;;;;;;8.95;7.90;;;;;;;12.61;99.37;101389.94;4962039;28;20038;-63
2023/05/13 02:21:38;;;;;;;12.48;8.40;;;;;;;12.63;99.46;101391.66;4976234;28;20071;-63
2023/05/13 02:24:04;;;;;;;7.28;6.53;;;;;;;12.66;99.37;101390.75;4962778;28;20078;-63
2023/05/13 02:26:30;;;;;;;19.10;8.38;;;;;;;12.67;99.62;101388.13;4962544;28;20081;-63
2023/05/13 02:28:55;;;;;;;8.57;6.78;;;;;;;12.69;99.57;101385.53;4964679;28;20041;-64
2023/05/13 02:31:21;;;;;;;9.35;6.93;;;;;;;12.67;99.35;101385.53;4964733;28;20117;-63
2023/05/13 02:33:46;;;;;;;11.43;8.85;;;;;;;12.65;99.31;101383.84;4962918;28;20039;-64
2023/05/13 02:36:11;;;;;;;9.70;6.85;;;;;;;12.62;99.43;101391.63;4965811;28;20031;-64
2023/05/13 02:38:37;;;;;;;11.07;8.43;;;;;;;12.55;99.47;101385.66;4964599;28;20073;-64
2023/05/13 02:41:02;;;;;;;9.95;7.00;;;;;;;12.51;99.49;101391.72;4964653;28;20059;-64
2023/05/13 02:43:28;;;;;;;13.07;8.90;;;;;;;12.43;99.40;101385.72;4959253;28;20043;-63
2023/05/13 02:45:54;;;;;;;9.95;8.77;;;;;;;12.35;99.81;101380.56;4964907;28;20041;-64
2023/05/13 02:48:19;;;;;;;12.88;7.63;;;;;;;12.29;100.00;101378.00;4967955;28;20668;-64
2023/05/13 02:50:45;;;;;;;12.82;8.05;;;;;;;12.23;100.00;101375.47;4967046;28;20137;-63
2023/05/13 02:53:13;;;;;;;12.70;8.70;;;;;;;12.18;100.00;101374.63;4963798;28;20039;-63
2023/05/13 02:55:38;;;;;;;11.20;8.90;;;;;;;12.14;100.00;101370.31;4961738;28;20206;-63
2023/05/13 02:58:04;;;;;;;14.23;9.13;;;;;;;12.09;100.00;101382.44;4962975;28;20873;-64
2023/05/13 03:00:29;;;;;;;17.05;10.73;;;;;;;12.05;100.00;101390.25;4964512;28;20602;-64
2023/05/13 03:02:55;;;;;;;13.48;10.70;;;;;;;12.01;100.00;101392.00;4964103;28;20035;-64
2023/05/13 03:05:20;;;;;;;14.15;10.63;;;;;;;11.96;100.00;101392.88;4964633;28;20126;-63
2023/05/13 03:07:46;;;;;;;13.57;10.25;;;;;;;11.92;100.00;101393.75;4963373;28;20047;-64
2023/05/13 03:10:12;;;;;;;13.50;9.73;;;;;;;11.86;100.00;101392.91;4961979;28;20039;-64
2023/05/13 03:12:37;;;;;;;14.68;10.02;;;;;;;11.83;100.00;101399.84;4963318;28;20043;-64
2023/05/13 03:15:03;;;;;;;12.05;9.82;;;;;;;11.79;100.00;101400.69;4965254;28;20370;-64
2023/05/13 03:17:32;;;;;;;11.20;8.90;;;;;;;11.76;100.00;101400.72;4963755;28;20093;-64
2023/05/13 03:19:57;;;;;;;14.05;9.50;;;;;;;11.71;100.00;101400.72;4989310;28;20093;-64
2023/05/13 03:22:23;;;;;;;16.88;10.68;;;;;;;11.71;100.00;101403.31;4962391;28;20055;-64
2023/05/13 03:24:48;;;;;;;13.85;10.15;;;;;;;11.66;100.00;101405.03;4959249;28;20069;-64
2023/05/13 03:27:14;;;;;;;16.55;10.35;;;;;;;11.59;100.00;101415.44;4961361;28;20058;-63
2023/05/13 03:29:39;;;;;;;12.88;9.73;;;;;;;11.52;100.00;101399.03;4965809;28;20730;-64
2023/05/13 03:32:05;;;;;;;15.50;9.80;;;;;;;11.47;100.00;101403.38;4962274;28;20134;-64
2023/05/13 03:34:32;;;;;;;14.00;9.45;;;;;;;11.43;100.00;101395.56;4967202;28;20353;-63
2023/05/13 03:36:57;;;;;;;17.27;9.93;;;;;;;11.38;100.00;101397.31;4962405;28;20541;-64
2023/05/13 03:39:24;;;;;;;12.43;10.68;;;;;;;11.33;100.00;101411.16;4962395;28;20083;-63
2023/05/13 03:41:50;;;;;;;15.75;10.07;;;;;;;11.32;100.00;101400.78;4963109;28;20039;-63
2023/05/13 03:44:15;;;;;;;15.07;10.07;;;;;;;11.30;100.00;101399.94;4958024;28;20094;-64
2023/05/13 03:46:41;;;;;;;15.38;10.60;;;;;;;11.27;100.00;101399.94;4955811;28;20101;-64
2023/05/13 03:49:07;;;;;;;15.13;9.75;;;;;;;11.28;100.00;101401.63;4961942;28;20094;-64
2023/05/13 03:51:33;;;;;;;15.15;10.82;;;;;;;11.26;100.00;101396.47;4962054;28;20038;-64
2023/05/13 03:53:58;;;;;;;12.32;9.32;;;;;;;11.25;100.00;101386.97;4961004;28;20034;-64
2023/05/13 03:56:24;;;;;;;13.57;10.25;;;;;;;11.24;100.00;101398.22;4962965;28;20030;-64
2023/05/13 03:58:50;;;;;;;13.50;9.38;;;;;;;11.24;100.00;101392.16;4962781;28;20053;-63
2023/05/13 04:01:15;;;;;;;13.77;9.10;;;;;;;11.23;100.00;101398.19;4961121;28;20686;-64
2023/05/13 04:03:44;;;;;;;11.07;9.75;;;;;;;11.22;100.00;101397.34;4967761;28;20247;-64
2023/05/13 04:06:09;;;;;;;12.68;9.90;;;;;;;11.23;100.00;101399.06;4982805;28;20065;-63
2023/05/13 04:08:35;;;;;;;13.50;10.18;;;;;;;11.23;100.00;101391.31;4979645;28;20531;-64
2023/05/13 04:11:00;;;;;;;14.90;10.38;;;;;;;11.24;100.00;101395.63;4981045;28;20050;-64
2023/05/13 04:13:25;;;;;;;18.58;10.70;;;;;;;11.24;100.00;101389.59;4989258;28;20570;-64
2023/05/13 04:15:53;;;;;;;13.88;9.98;;;;;;;11.25;100.00;101396.47;4988189;28;20049;-63
2023/05/13 04:18:18;;;;;;;15.98;11.13;;;;;;;11.26;100.00;101388.72;4977396;28;20054;-63
2023/05/13 04:20:44;;;;;;;17.75;11.32;;;;;;;11.26;100.00;101396.47;4981704;28;20121;-63
2023/05/13 04:23:09;;;;;;;17.95;10.95;;;;;;;11.30;100.00;101392.16;4979004;28;20063;-64
2023/05/13 04:25:36;;;;;;;13.07;10.75;;;;;;;11.32;100.00;101398.19;4978417;28;20110;-64
2023/05/13 04:28:01;;;;;;;12.30;10.80;;;;;;;11.32;100.00;101400.78;4977676;28;20041;-63
2023/05/13 04:30:26;;;;;;;15.52;9.95;;;;;;;11.34;100.00;101399.91;4978041;28;20042;-64
2023/05/13 04:32:52;;;;;;;15.75;10.90;;;;;;;11.37;100.00;101396.44;4983419;28;20044;-64
2023/05/13 04:35:17;;;;;;;16.85;10.48;;;;;;;11.38;100.00;101394.72;4981485;28;20038;-64
2023/05/13 04:37:43;;;;;;;14.68;9.52;;;;;;;11.44;100.00;101399.94;4982958;28;20050;-64
2023/05/13 04:40:09;;;;;;;12.88;10.13;;;;;;;11.51;100.00;101401.66;4981600;28;20129;-64
2023/05/13 04:42:35;;;;;;;11.50;9.82;;;;;;;11.58;100.00;101405.94;4978602;28;20089;-64
2023/05/13 04:45:00;;;;;;;13.75;9.95;;;;;;;11.64;100.00;101401.59;4973076;28;20560;-64
2023/05/13 04:47:25;;;;;;;12.93;9.63;;;;;;;11.71;100.00;101402.47;4987032;28;20031;-63
2023/05/13 04:49:51;;;;;;;14.02;9.15;;;;;;;11.72;100.00;101401.59;4979770;28;20089;-64
2023/05/13 04:52:16;;;;;;;14.95;8.85;;;;;;;11.74;100.00;101398.13;4980005;28;20041;-66
2023/05/13 04:54:42;;;;;;;12.77;9.73;;;;;;;11.76;100.00;101405.88;4979055;28;20284;-64
2023/05/13 04:57:07;;;;;;;12.63;9.55;;;;;;;11.77;100.00;101412.81;4980681;28;20040;-64
2023/05/13 04:59:33;;;;;;;14.55;10.68;;;;;;;11.70;100.00;101413.66;4978585;28;20033;-64
2023/05/13 05:01:59;;;;;;;17.45;11.00;;;;;;;11.66;100.00;101417.16;4975705;28;20527;-64
2023/05/13 05:04:26;;;;;;;12.70;9.55;;;;;;;11.55;100.00;101426.66;4979410;28;20086;-64
2023/05/13 05:06:52;;;;;;;13.50;10.30;;;;;;;11.45;100.00;101431.00;4982635;28;20038;-64
2023/05/13 05:09:17;;;;;;;15.68;10.98;;;;;;;11.48;100.00;101435.31;4977101;28;20084;-63
2023/05/13 05:11:43;;;;;;;14.88;11.30;;;;;;;11.48;100.00;101440.50;4975399;28;20074;-64
2023/05/13 05:14:08;;;;;;;13.35;11.35;;;;;;;11.46;100.00;101445.66;4982033;28;20046;-64
2023/05/13 05:16:34;;;;;;;16.02;11.90;;;;;;;11.40;100.00;101448.22;4979424;28;20038;-64
2023/05/13 05:18:59;;;;;;;16.88;13.18;;;;;;;11.32;100.00;101456.00;4978080;28;20049;-64
2023/05/13 05:21:24;;;;;;;14.73;12.30;;;;;;;11.29;100.00;101452.53;4978509;28;20129;-64
2023/05/13 05:23:50;;;;;;;17.02;11.30;;;;;;;11.34;100.00;101453.38;4978672;28;20085;-63
2023/05/13 05:26:15;;;;;;;15.95;12.55;;;;;;;11.36;100.00;101454.28;4976616;28;20988;-64
2023/05/13 05:28:42;;;;;;;14.73;11.45;;;;;;;11.58;100.00;101453.41;4978996;28;20039;-63
2023/05/13 05:31:08;;;;;;;15.27;11.77;;;;;;;11.70;100.00;101449.94;4982051;28;20037;-64
2023/05/13 05:33:34;;;;;;;16.92;12.98;;;;;;;11.92;100.00;101454.19;4976282;28;20034;-64
2023/05/13 05:36:00;;;;;;;17.65;13.50;;;;;;;12.12;100.00;101449.81;4985843;28;20040;-64
2023/05/13 05:38:25;;;;;;;21.75;12.90;;;;;;;12.27;100.00;101454.94;4985051;28;20030;-64
2023/05/13 05:40:51;;;;;;;17.55;12.05;;;;;;;12.42;99.37;101461.78;4981334;28;20027;-64
2023/05/13 05:43:16;;;;;;;16.20;12.30;;;;;;;12.64;98.61;101457.34;4984921;28;20554;-63
2023/05/13 05:45:42;;;;;;;16.83;12.63;;;;;;;12.83;98.28;101458.94;4982983;28;20786;-64
2023/05/13 05:48:08;;;;;;;15.10;11.00;;;;;;;12.98;96.80;101451.06;4980007;28;20041;-63
2023/05/13 05:50:33;;;;;;;14.73;11.23;;;;;;;13.12;96.38;101449.25;4979830;28;20113;-63
2023/05/13 05:52:59;;;;;;;14.80;11.52;;;;;;;13.17;96.56;101459.59;4980353;28;20180;-63
2023/05/13 05:55:27;;;;;;;14.65;10.70;;;;;;;13.28;95.47;101458.66;4978879;28;20110;-63
2023/05/13 05:57:53;;;;;;;21.85;14.13;;;;;;;13.24;94.12;101463.84;4987014;28;20030;-63
2023/05/13 06:00:19;;;;;;;16.45;12.13;;;;;;;13.30;94.75;101462.06;4977444;28;20668;-64
2023/05/13 06:02:44;;;;;;;19.73;14.48;;;;;;;13.38;94.67;101467.22;4979825;28;20045;-64
2023/05/13 06:05:10;;;;;;;20.65;14.73;;;;;;;13.44;93.92;101460.22;4975378;28;20035;-64
2023/05/13 06:07:35;;;;;;;19.02;14.38;;;;;;;13.60;94.27;101468.72;4973799;28;20088;-64
2023/05/13 06:10:01;;;;;;;17.20;13.52;;;;;;;13.83;93.69;101463.31;4973801;28;20038;-64
2023/05/13 06:12:26;;;;;;;18.17;14.38;;;;;;;14.04;92.86;101463.94;4974865;28;20073;-63
2023/05/13 06:14:51;;;;;;;19.70;15.00;;;;;;;14.16;91.65;101459.50;4981832;28;20034;-64
2023/05/13 06:17:17;;;;;;;21.25;16.05;;;;;;;14.21;90.02;101461.16;4977122;28;20503;-64
2023/05/13 06:19:42;;;;;;;19.05;14.95;;;;;;;14.23;89.17;101461.13;4976249;28;20181;-64
2023/05/13 06:22:11;;;;;;;20.63;15.27;;;;;;;14.28;89.41;101460.19;4976521;28;20562;-64
2023/05/13 06:24:38;;;;;;;23.95;15.90;;;;;;;14.31;88.97;101456.66;4976616;28;20133;-64
2023/05/13 06:27:04;;;;;;;26.90;20.33;;;;;;;14.38;89.18;101463.56;4979253;28;20430;-63
2023/05/13 06:29:29;;;;;;;23.77;17.10;;;;;;;14.39;89.07;101465.28;4980577;28;20053;-65
2023/05/13 06:31:55;;;;;;;21.33;17.10;;;;;;;14.42;88.62;101466.13;4983299;28;21815;-64
2023/05/13 06:34:20;;;;;;;24.30;20.05;;;;;;;14.43;88.50;101473.03;4982544;28;20571;-64
2023/05/13 06:36:46;;;;;;;24.95;19.98;;;;;;;14.43;88.17;101475.63;4984873;28;20096;-65
2023/05/13 06:39:11;;;;;;;25.38;20.13;;;;;;;14.42;88.11;101473.94;4980532;28;20045;-64
2023/05/13 06:41:38;;;;;;;28.25;20.95;;;;;;;14.42;88.37;101479.13;4972651;28;20526;-64
2023/05/13 06:44:04;;;;;;;31.80;19.90;;;;;;;14.45;88.12;101481.69;4971420;28;20512;-64
2023/05/13 06:46:30;;;;;;;30.27;22.20;;;;;;;14.48;88.69;101483.38;4973413;28;20858;-64
2023/05/13 06:48:56;;;;;;;31.02;23.48;;;;;;;14.52;87.57;101479.84;4977095;28;20038;-64
2023/05/13 06:51:22;;;;;;;30.13;21.33;;;;;;;14.57;87.54;101476.28;4981219;28;20046;-64
2023/05/13 06:53:47;;;;;;;28.65;22.42;;;;;;;14.55;87.27;101472.88;4980024;28;20676;-64
2023/05/13 06:56:13;;;;;;;28.77;20.85;;;;;;;14.54;86.95;101481.53;4979610;28;20488;-64
2023/05/13 06:58:38;;;;;;;28.05;20.40;;;;;;;14.69;87.52;101470.09;4978811;28;20066;-64
2023/05/13 07:01:03;;;;;;;32.88;23.02;;;;;;;14.73;87.63;101469.16;4982079;28;20050;-64
2023/05/13 07:03:29;;;;;;;28.30;22.50;;;;;;;14.83;87.47;101475.09;4980971;28;20034;-64
2023/05/13 07:05:54;;;;;;;31.95;22.50;;;;;;;14.92;86.65;101472.34;4985281;28;20041;-63
2023/05/13 07:08:20;;;;;;;29.90;23.58;;;;;;;15.09;87.61;101472.94;4977567;28;20070;-65
2023/05/13 07:10:45;;;;;;;31.55;23.27;;;;;;;15.21;86.67;101470.16;4978616;28;20093;-64
2023/05/13 07:13:11;;;;;;;31.42;23.30;;;;;;;15.32;86.23;101477.78;4983608;28;20042;-63
2023/05/13 07:15:36;;;;;;;27.63;22.02;;;;;;;15.46;85.81;101468.88;4980675;28;20042;-63
2023/05/13 07:18:02;;;;;;;27.25;22.23;;;;;;;15.50;85.33;101477.47;4978987;28;20057;-63
2023/05/13 07:20:27;;;;;;;30.83;23.10;;;;;;;15.62;84.08;101475.56;4980594;28;20550;-63
2023/05/13 07:22:53;;;;;;;29.65;23.15;;;;;;;15.68;83.38;101475.44;4977845;28;20039;-63
2023/05/13 07:25:18;;;;;;;28.75;23.30;;;;;;;15.80;83.38;101481.31;4977201;28;20038;-64
2023/05/13 07:27:44;;;;;;;27.27;21.13;;;;;;;15.96;83.28;101467.97;4980741;28;20099;-64
2023/05/13 07:30:11;;;;;;;25.65;19.45;;;;;;;16.20;81.67;101466.63;4977655;28;20909;-63
2023/05/13 07:32:37;;;;;;;24.27;19.75;;;;;;;16.32;82.11;101475.06;4979174;28;20030;-64
2023/05/13 07:35:03;;;;;;;28.83;20.33;;;;;;;16.53;81.79;101467.69;4979172;28;20026;-63
2023/05/13 07:37:28;;;;;;;29.20;20.73;;;;;;;16.64;80.49;101457.88;4978585;28;20730;-66
2023/05/13 07:39:53;;;;;;;35.50;21.33;;;;;;;16.54;81.25;101470.25;4979939;28;20038;-63
2023/05/13 07:42:19;;;;;;;26.10;20.83;;;;;;;16.67;80.93;101461.28;4983375;28;20045;-63
2023/05/13 07:44:44;;;;;;;25.13;17.20;;;;;;;16.82;80.27;101454.88;4980671;28;20038;-64
2023/05/13 07:47:10;;;;;;;22.60;18.42;;;;;;;16.90;79.29;101452.06;4979133;28;20046;-64
2023/05/13 07:49:35;;;;;;;22.33;18.85;;;;;;;16.98;78.73;101450.16;4979645;28;20682;-64
2023/05/13 07:52:01;;;;;;;20.65;17.50;;;;;;;17.23;78.59;101459.97;4983479;28;20774;-64
2023/05/13 07:54:27;;;;;;;23.60;18.60;;;;;;;17.15;77.24;101451.47;4982884;28;20045;-64
2023/05/13 07:56:52;;;;;;;23.38;17.05;;;;;;;17.11;75.74;101435.91;4981703;28;20080;-63
2023/05/13 07:59:18;;;;;;;17.20;14.85;;;;;;;17.32;75.56;101444.06;4983079;28;20499;-63
2023/05/13 08:01:43;;;;;;;19.30;15.10;;;;;;;17.67;75.32;101442.28;4986574;28;20124;-63
2023/05/13 08:04:09;;;;;;;22.73;16.48;;;;;;;17.60;74.71;101444.19;4981258;28;20403;-64
2023/05/13 08:06:34;;;;;;;20.38;15.63;;;;;;;17.77;74.05;101434.16;4985668;28;20132;-64
2023/05/13 08:09:00;;;;;;;22.05;14.90;;;;;;;17.68;74.42;101438.78;4983456;28;20145;-63
2023/05/13 08:11:26;;;;;;;22.05;13.68;;;;;;;17.80;75.00;101431.47;4978047;28;20143;-62
2023/05/13 08:13:51;;;;;;;15.50;13.20;;;;;;;17.92;74.44;101439.00;4988459;28;20385;-63
2023/05/13 08:16:17;;;;;;;16.80;13.02;;;;;;;17.88;73.62;101432.13;4985087;28;20045;-63
2023/05/13 08:18:42;;;;;;;15.20;12.18;;;;;;;17.65;71.80;101410.97;4980006;28;20038;-63
2023/05/13 08:21:07;;;;;;;17.00;10.98;;;;;;;17.69;70.33;101398.66;4981239;28;20050;-63
2023/05/13 08:23:35;;;;;;;11.38;9.13;;;;;;;17.68;69.32;101400.41;4980502;28;20451;-63
2023/05/13 08:26:01;;;;;;;14.90;11.20;;;;;;;17.63;70.24;101401.44;4977066;28;20077;-64
2023/05/13 08:28:28;;;;;;;15.65;11.15;;;;;;;17.54;69.50;101397.34;4980651;28;20129;-64
2023/05/13 08:30:54;;;;;;;12.45;9.63;;;;;;;17.53;68.22;101379.06;4986496;28;20033;-63
2023/05/13 08:33:19;;;;;;;12.50;9.52;;;;;;;17.65;69.09;101399.63;4982666;28;20076;-64
2023/05/13 08:35:45;;;;;;;10.60;8.40;;;;;;;17.63;68.83;101394.44;4982107;28;20066;-64
2023/05/13 08:38:11;;;;;;;15.65;9.35;;;;;;;17.76;69.36;101406.28;4983030;28;20499;-63
2023/05/13 08:40:36;;;;;;;11.90;8.57;;;;;;;17.93;68.73;101400.59;4977444;28;20034;-64
2023/05/13 08:43:03;;;;;;;11.73;8.32;;;;;;;18.07;68.15;101392.38;4987266;28;20046;-64
2023/05/13 08:45:30;;;;;;;12.05;8.20;;;;;;;18.13;67.99;101397.44;4984276;28;20054;-64
2023/05/13 08:48:05;;;;;;;13.80;9.50;;;;;;;18.21;68.23;101405.91;4983149;28;20042;-63
2023/05/13 08:50:31;;;;;;;10.82;8.80;;;;;;;18.07;65.31;101358.38;4985528;28;20066;-63
2023/05/13 08:52:58;;;;;;;11.32;8.52;;;;;;;18.05;66.00;101368.88;4990283;28;20778;-63
2023/05/13 08:55:25;;;;;;;11.32;7.97;;;;;;;18.05;66.49;101383.72;4980683;28;20109;-64
2023/05/13 08:57:50;;;;;;;10.60;8.13;;;;;;;18.22;66.73;101384.94;4980581;28;20081;-64
2023/05/13 09:00:16;;;;;;;12.52;8.85;;;;;;;18.21;65.98;101377.97;4984230;28;20117;-64
2023/05/13 09:02:42;;;;;;;12.45;8.40;;;;;;;18.40;64.72;101359.97;4983610;28;20065;-63
2023/05/13 09:05:08;;;;;;;10.52;7.55;;;;;;;18.67;64.56;101353.00;4980054;28;20081;-63
2023/05/13 09:07:35;;;;;;;8.90;6.93;;;;;;;18.86;63.94;101343.66;4981751;28;20038;-64
2023/05/13 09:10:03;;;;;;;11.50;7.95;;;;;;;18.91;63.02;101326.88;4973654;28;20261;-64
2023/05/13 09:12:48;;;;;;;15.55;7.68;;;;;;;19.07;63.28;101330.69;4976117;28;20100;-64
2023/05/13 09:15:19;;;;;;;10.63;7.60;;;;;;;19.19;62.23;101313.69;4985355;28;20030;-64
2023/05/13 09:17:48;;;;;;;10.65;7.30;;;;;;;19.18;60.92;101298.88;4982354;28;20377;-64
2023/05/13 09:20:15;;;;;;;9.93;7.30;;;;;;;19.33;61.18;101300.94;4982801;28;20555;-64
2023/05/13 09:22:43;;;;;;;9.98;7.28;;;;;;;19.44;61.13;101309.28;4977588;28;20108;-64
2023/05/13 09:25:11;;;;;;;7.80;7.00;;;;;;;19.44;60.31;101288.28;4977120;28;20401;-64
2023/05/13 09:27:57;;;;;;;9.02;7.55;;;;;;;19.42;59.96;101276.16;4977898;28;20042;-66
2023/05/13 09:30:34;;;;;;;7.25;5.85;;;;;;;19.48;60.96;101304.78;4978264;28;20034;-66
2023/05/13 09:33:10;;;;;;;9.60;6.78;;;;;;;19.53;60.54;101300.25;4977387;28;20026;-65
2023/05/13 09:35:38;;;;;;;10.50;6.93;;;;;;;19.44;60.94;101300.56;4974498;28;20096;-66
2023/05/13 09:38:20;;;;;;;9.23;7.55;;;;;;;19.38;60.08;101282.44;4976883;28;20035;-66
2023/05/13 09:40:53;;;;;;;10.45;7.25;;;;;;;19.48;60.25;101289.91;4975407;28;20712;-66
2023/05/13 09:43:24;;;;;;;9.98;6.45;;;;;;;19.59;59.33;101261.50;4979792;28;20048;-66
2023/05/13 09:45:59;;;;;;;10.93;6.57;;;;;;;19.79;59.61;101267.81;4977754;28;20038;-66
2023/05/13 09:48:26;;;;;;;8.98;6.30;;;;;;;19.82;59.53;101259.81;4979670;28;20517;-66
2023/05/13 09:50:52;;;;;;;11.05;5.88;;;;;;;19.96;58.99;101250.50;4977456;28;20176;-66
2023/05/13 09:53:20;;;;;;;6.20;4.88;;;;;;;20.07;58.58;101234.31;4980213;28;20042;-66
2023/05/13 09:55:50;;;;;;;10.73;5.07;;;;;;;20.24;57.55;101221.41;4974166;28;20580;-66
2023/05/13 09:58:18;;;;;;;8.75;5.00;;;;;;;20.39;56.09;101186.63;4997510;28;20045;-66
2023/05/13 10:00:45;;;;;;;7.93;5.18;;;;;;;20.58;53.52;101145.50;4978864;28;20042;-66
2023/05/13 10:03:10;;;;;;;7.00;6.22;;;;;;;20.64;53.24;101150.50;4979513;28;20038;-65
2023/05/13 10:05:38;;;;;;;8.95;5.35;;;;;;;20.86;53.57;101146.97;4980334;28;20038;-66
2023/05/13 10:08:04;;;;;;;10.00;5.72;;;;;;;21.06;52.41;101126.75;4983051;28;20041;-66
2023/05/13 10:10:31;;;;;;;8.95;5.88;;;;;;;21.38;53.31;101148.91;4978521;28;20042;-66
2023/05/13 10:13:05;;;;;;;9.40;5.35;;;;;;;21.64;52.37;101139.84;4982804;28;20038;-66
2023/05/13 10:15:31;;;;;;;10.65;6.55;;;;;;;21.84;51.39;101113.41;4980131;28;20066;-66
2023/05/13 10:17:58;;;;;;;6.80;4.90;;;;;;;22.20;51.15;101126.50;4980694;28;20058;-66
2023/05/13 10:20:25;;;;;;;6.47;4.82;;;;;;;22.44;49.05;101075.25;4978145;28;20046;-66
2023/05/13 10:22:51;;;;;;;9.35;5.28;;;;;;;22.54;50.02;101086.97;4981796;28;20038;-66
2023/05/13 10:25:17;;;;;;;9.55;5.45;;;;;;;22.77;50.21;101097.16;4977173;28;20081;-66
2023/05/13 10:27:43;;;;;;;8.02;5.45;;;;;;;22.89;49.17;101075.41;4978696;28;20141;-66
2023/05/13 10:30:10;;;;;;;8.02;5.80;;;;;;;22.88;48.89;101073.72;4985743;28;20022;-66
2023/05/13 10:32:39;;;;;;;7.18;4.82;;;;;;;22.97;48.85;101066.25;4980415;28;20076;-66
2023/05/13 10:35:14;;;;;;;11.93;5.00;;;;;;;23.03;45.98;101027.22;4980583;28;20034;-66
2023/05/13 10:38:17;;;;;;;9.48;5.43;;;;;;;22.69;46.73;101053.69;4979389;28;20030;-66
2023/05/13 10:41:07;;;;;;;7.10;4.72;;;;;;;22.23;47.56;101090.31;4977309;28;20101;-66
2023/05/13 10:43:33;;;;;;;6.85;3.95;;;;;;;22.00;45.71;101037.13;4975667;28;20049;-66
2023/05/13 10:46:04;;;;;;;7.93;4.40;;;;;;;21.53;51.18;101158.72;4978051;28;20076;-68
2023/05/13 10:48:41;;;;;;;4.82;2.53;;;;;;;20.23;46.40;101080.53;4976861;28;20117;-65
2023/05/13 10:51:08;;;;;;;10.13;2.55;;;;;;;18.78;54.22;101227.78;4976107;28;20119;-65
2023/05/13 10:53:54;;;;;;;10.35;3.10;;;;;;;17.42;64.23;101397.66;4986474;28;20113;-64
2023/05/13 10:56:25;;;;;;;6.88;3.10;;;;;;;16.73;68.24;101432.41;4977984;28;20048;-67
2023/05/13 10:59:02;;;;;;;5.97;2.97;;;;;;;16.24;69.31;101416.09;4985779;28;20431;-67
2023/05/13 11:01:47;;;;;;;5.55;2.83;;;;;;;16.06;68.44;101390.41;4982846;28;20038;-68
2023/05/13 11:04:18;;;;;;;6.53;3.72;;;;;;;15.77;73.35;101411.84;4983320;28;20039;-67
2023/05/13 11:06:45;;;;;;;4.95;3.38;;;;;;;15.88;70.35;101390.81;4984227;28;20145;-68
2023/05/13 11:09:13;;;;;;;4.60;3.45;;;;;;;15.95;70.57;101392.38;4981997;28;20034;-67
2023/05/13 11:11:39;;;;;;;4.95;3.55;;;;;;;15.97;69.24;101364.56;4985845;28;20061;-66
2023/05/13 11:14:16;;;;;;;4.32;3.20;;;;;;;16.05;68.13;101358.28;4982982;28;20465;-67